sensor_id;sensor_type;location;lat;lon;timestamp;P1;durP1;ratioP1;P2;durP2;ratioP2
28988;SDS011;16089;59.952;10.818;2022-07-06T00:00:10;1.23;;;0.10;;
28988;SDS011;16089;59.952;10.818;2022-07-06T00:02:37;1.38;;;0.10;;
28988;SDS011;16089;59.952;10.818;2022-07-06T00:05:05;1.38;;;0.10;;
28988;SDS011;16089;59.952;10.818;2022-07-06T00:07:31;2.17;;;0.25;;
28988;SDS011;16089;59.952;10.818;2022-07-06T00:09:58;2.00;;;0.10;;
28988;SDS011;16089;59.952;10.818;2022-07-06T00:12:24;3.95;;;0.20;;
28988;SDS011;16089;59.952;10.818;2022-07-06T00:14:51;0.45;;;0.03;;
28988;SDS011;16089;59.952;10.818;2022-07-06T00:17:17;0.35;;;0.00;;
28988;SDS011;16089;59.952;10.818;2022-07-06T00:19:43;0.65;;;0.10;;
28988;SDS011;16089;59.952;10.818;2022-07-06T00:22:11;5.72;;;0.22;;
28988;SDS011;16089;59.952;10.818;2022-07-06T00:24:37;0.63;;;0.05;;
28988;SDS011;16089;59.952;10.818;2022-07-06T00:27:04;0.10;;;0.03;;
28988;SDS011;16089;59.952;10.818;2022-07-06T00:29:30;1.90;;;0.15;;
28988;SDS011;16089;59.952;10.818;2022-07-06T00:31:57;1.65;;;0.10;;
28988;SDS011;16089;59.952;10.818;2022-07-06T00:34:23;1.80;;;0.03;;
28988;SDS011;16089;59.952;10.818;2022-07-06T00:36:50;0.20;;;0.03;;
28988;SDS011;16089;59.952;10.818;2022-07-06T00:39:17;0.30;;;0.10;;
28988;SDS011;16089;59.952;10.818;2022-07-06T00:41:46;0.55;;;0.10;;
28988;SDS011;16089;59.952;10.818;2022-07-06T00:44:13;0.38;;;0.00;;
28988;SDS011;16089;59.952;10.818;2022-07-06T00:46:39;0.10;;;0.00;;
28988;SDS011;16089;59.952;10.818;2022-07-06T00:49:06;1.90;;;0.05;;
28988;SDS011;16089;59.952;10.818;2022-07-06T00:51:52;2.55;;;0.05;;
28988;SDS011;16089;59.952;10.818;2022-07-06T00:54:20;1.45;;;0.00;;
28988;SDS011;16089;59.952;10.818;2022-07-06T00:56:46;0.43;;;0.00;;
28988;SDS011;16089;59.952;10.818;2022-07-06T00:59:13;1.50;;;0.10;;
28988;SDS011;16089;59.952;10.818;2022-07-06T01:01:39;0.08;;;0.08;;
28988;SDS011;16089;59.952;10.818;2022-07-06T01:04:06;1.85;;;0.13;;
28988;SDS011;16089;59.952;10.818;2022-07-06T01:06:32;0.30;;;0.10;;
28988;SDS011;16089;59.952;10.818;2022-07-06T01:08:59;0.30;;;0.10;;
28988;SDS011;16089;59.952;10.818;2022-07-06T01:11:26;0.65;;;0.03;;
28988;SDS011;16089;59.952;10.818;2022-07-06T01:13:53;0.45;;;0.32;;
28988;SDS011;16089;59.952;10.818;2022-07-06T01:16:20;0.25;;;0.00;;
28988;SDS011;16089;59.952;10.818;2022-07-06T01:18:47;1.05;;;0.10;;
28988;SDS011;16089;59.952;10.818;2022-07-06T01:21:14;2.42;;;0.22;;
28988;SDS011;16089;59.952;10.818;2022-07-06T01:23:41;0.30;;;0.00;;
28988;SDS011;16089;59.952;10.818;2022-07-06T01:26:09;1.77;;;0.10;;
28988;SDS011;16089;59.952;10.818;2022-07-06T01:28:35;0.00;;;0.00;;
28988;SDS011;16089;59.952;10.818;2022-07-06T01:31:01;0.00;;;0.00;;
28988;SDS011;16089;59.952;10.818;2022-07-06T01:33:28;1.17;;;0.13;;
28988;SDS011;16089;59.952;10.818;2022-07-06T01:35:54;0.75;;;0.00;;
28988;SDS011;16089;59.952;10.818;2022-07-06T01:38:22;0.30;;;0.10;;
28988;SDS011;16089;59.952;10.818;2022-07-06T01:40:48;1.48;;;0.10;;
28988;SDS011;16089;59.952;10.818;2022-07-06T01:43:15;0.50;;;0.10;;
28988;SDS011;16089;59.952;10.818;2022-07-06T01:45:41;0.68;;;0.03;;
28988;SDS011;16089;59.952;10.818;2022-07-06T01:48:08;2.45;;;0.15;;
28988;SDS011;16089;59.952;10.818;2022-07-06T01:50:34;0.47;;;0.00;;
28988;SDS011;16089;59.952;10.818;2022-07-06T01:53:00;0.47;;;0.10;;
28988;SDS011;16089;59.952;10.818;2022-07-06T01:55:28;3.20;;;0.10;;
28988;SDS011;16089;59.952;10.818;2022-07-06T01:57:55;1.90;;;0.00;;
28988;SDS011;16089;59.952;10.818;2022-07-06T02:00:21;0.00;;;0.00;;
28988;SDS011;16089;59.952;10.818;2022-07-06T02:02:47;2.47;;;0.10;;
28988;SDS011;16089;59.952;10.818;2022-07-06T02:05:14;0.52;;;0.05;;
28988;SDS011;16089;59.952;10.818;2022-07-06T02:07:40;0.82;;;0.10;;
28988;SDS011;16089;59.952;10.818;2022-07-06T02:10:07;0.38;;;0.03;;
28988;SDS011;16089;59.952;10.818;2022-07-06T02:12:35;2.10;;;0.17;;
28988;SDS011;16089;59.952;10.818;2022-07-06T02:15:01;0.82;;;0.20;;
28988;SDS011;16089;59.952;10.818;2022-07-06T02:17:28;0.20;;;0.00;;
28988;SDS011;16089;59.952;10.818;2022-07-06T02:19:54;0.88;;;0.00;;
28988;SDS011;16089;59.952;10.818;2022-07-06T02:22:20;1.08;;;0.00;;
28988;SDS011;16089;59.952;10.818;2022-07-06T02:24:47;0.88;;;0.10;;
28988;SDS011;16089;59.952;10.818;2022-07-06T02:27:13;1.75;;;0.10;;
28988;SDS011;16089;59.952;10.818;2022-07-06T02:29:41;0.22;;;0.00;;
28988;SDS011;16089;59.952;10.818;2022-07-06T02:32:07;0.52;;;0.05;;
28988;SDS011;16089;59.952;10.818;2022-07-06T02:34:34;0.90;;;0.08;;
28988;SDS011;16089;59.952;10.818;2022-07-06T02:37:00;0.65;;;0.10;;
28988;SDS011;16089;59.952;10.818;2022-07-06T02:39:26;0.32;;;0.00;;
28988;SDS011;16089;59.952;10.818;2022-07-06T02:41:53;0.63;;;0.10;;
28988;SDS011;16089;59.952;10.818;2022-07-06T02:44:19;0.10;;;0.00;;
28988;SDS011;16089;59.952;10.818;2022-07-06T02:46:47;0.30;;;0.00;;
28988;SDS011;16089;59.952;10.818;2022-07-06T02:49:13;0.65;;;0.10;;
28988;SDS011;16089;59.952;10.818;2022-07-06T02:51:39;0.20;;;0.08;;
28988;SDS011;16089;59.952;10.818;2022-07-06T02:54:06;0.13;;;0.00;;
28988;SDS011;16089;59.952;10.818;2022-07-06T02:56:32;0.45;;;0.00;;
28988;SDS011;16089;59.952;10.818;2022-07-06T02:58:58;0.95;;;0.10;;
28988;SDS011;16089;59.952;10.818;2022-07-06T03:01:25;0.98;;;0.10;;
28988;SDS011;16089;59.952;10.818;2022-07-06T03:03:53;0.00;;;0.00;;
28988;SDS011;16089;59.952;10.818;2022-07-06T03:06:19;0.90;;;0.10;;
28988;SDS011;16089;59.952;10.818;2022-07-06T03:08:45;0.38;;;0.00;;
28988;SDS011;16089;59.952;10.818;2022-07-06T03:11:12;1.00;;;0.10;;
28988;SDS011;16089;59.952;10.818;2022-07-06T03:13:38;0.20;;;0.00;;
28988;SDS011;16089;59.952;10.818;2022-07-06T03:16:05;0.75;;;0.00;;
28988;SDS011;16089;59.952;10.818;2022-07-06T03:18:31;0.00;;;0.00;;
28988;SDS011;16089;59.952;10.818;2022-07-06T03:20:59;0.10;;;0.00;;
28988;SDS011;16089;59.952;10.818;2022-07-06T03:23:28;0.95;;;0.10;;
28988;SDS011;16089;59.952;10.818;2022-07-06T03:25:55;0.00;;;0.00;;
28988;SDS011;16089;59.952;10.818;2022-07-06T03:28:21;0.40;;;0.00;;
28988;SDS011;16089;59.952;10.818;2022-07-06T03:30:48;0.47;;;0.10;;
28988;SDS011;16089;59.952;10.818;2022-07-06T03:33:14;1.17;;;0.05;;
28988;SDS011;16089;59.952;10.818;2022-07-06T03:35:41;2.47;;;0.00;;
28988;SDS011;16089;59.952;10.818;2022-07-06T03:38:09;0.03;;;0.00;;
28988;SDS011;16089;59.952;10.818;2022-07-06T03:40:35;0.52;;;0.00;;
28988;SDS011;16089;59.952;10.818;2022-07-06T03:43:01;0.73;;;0.03;;
28988;SDS011;16089;59.952;10.818;2022-07-06T03:45:28;4.22;;;0.98;;
28988;SDS011;16089;59.952;10.818;2022-07-06T03:47:54;2.50;;;0.10;;
28988;SDS011;16089;59.952;10.818;2022-07-06T03:50:20;2.92;;;0.00;;
28988;SDS011;16089;59.952;10.818;2022-07-06T03:52:47;0.05;;;0.00;;
28988;SDS011;16089;59.952;10.818;2022-07-06T03:55:14;0.32;;;0.10;;
28988;SDS011;16089;59.952;10.818;2022-07-06T03:57:41;0.38;;;0.10;;
28988;SDS011;16089;59.952;10.818;2022-07-06T04:00:08;0.68;;;0.00;;
28988;SDS011;16089;59.952;10.818;2022-07-06T04:02:34;0.55;;;0.03;;
28988;SDS011;16089;59.952;10.818;2022-07-06T04:05:01;0.88;;;0.22;;
28988;SDS011;16089;59.952;10.818;2022-07-06T04:07:27;0.47;;;0.10;;
28988;SDS011;16089;59.952;10.818;2022-07-06T04:09:53;0.77;;;0.08;;
28988;SDS011;16089;59.952;10.818;2022-07-06T04:12:21;0.43;;;0.00;;
28988;SDS011;16089;59.952;10.818;2022-07-06T04:14:47;0.75;;;0.08;;
28988;SDS011;16089;59.952;10.818;2022-07-06T04:17:14;1.15;;;0.10;;
28988;SDS011;16089;59.952;10.818;2022-07-06T04:19:58;0.20;;;0.10;;
28988;SDS011;16089;59.952;10.818;2022-07-06T04:22:24;0.30;;;0.10;;
28988;SDS011;16089;59.952;10.818;2022-07-06T04:24:51;0.63;;;0.10;;
28988;SDS011;16089;59.952;10.818;2022-07-06T04:27:17;0.10;;;0.03;;
28988;SDS011;16089;59.952;10.818;2022-07-06T04:29:45;0.57;;;0.03;;
28988;SDS011;16089;59.952;10.818;2022-07-06T04:32:11;1.73;;;0.10;;
28988;SDS011;16089;59.952;10.818;2022-07-06T04:34:37;1.33;;;0.17;;
28988;SDS011;16089;59.952;10.818;2022-07-06T04:37:04;1.77;;;0.20;;
28988;SDS011;16089;59.952;10.818;2022-07-06T04:39:30;0.70;;;0.10;;
28988;SDS011;16089;59.952;10.818;2022-07-06T04:41:57;1.40;;;0.10;;
28988;SDS011;16089;59.952;10.818;2022-07-06T04:44:23;0.52;;;0.10;;
28988;SDS011;16089;59.952;10.818;2022-07-06T04:46:51;1.13;;;0.17;;
28988;SDS011;16089;59.952;10.818;2022-07-06T04:49:17;0.80;;;0.17;;
28988;SDS011;16089;59.952;10.818;2022-07-06T04:51:44;1.48;;;0.10;;
28988;SDS011;16089;59.952;10.818;2022-07-06T04:54:10;0.52;;;0.10;;
28988;SDS011;16089;59.952;10.818;2022-07-06T04:56:36;0.13;;;0.00;;
28988;SDS011;16089;59.952;10.818;2022-07-06T04:59:03;1.90;;;0.10;;
28988;SDS011;16089;59.952;10.818;2022-07-06T05:01:29;1.10;;;0.10;;
28988;SDS011;16089;59.952;10.818;2022-07-06T05:03:57;1.02;;;0.20;;
28988;SDS011;16089;59.952;10.818;2022-07-06T05:06:23;1.02;;;0.10;;
28988;SDS011;16089;59.952;10.818;2022-07-06T05:08:49;0.98;;;0.20;;
28988;SDS011;16089;59.952;10.818;2022-07-06T05:11:16;0.20;;;0.00;;
28988;SDS011;16089;59.952;10.818;2022-07-06T05:13:42;0.77;;;0.10;;
28988;SDS011;16089;59.952;10.818;2022-07-06T05:16:09;0.85;;;0.15;;
28988;SDS011;16089;59.952;10.818;2022-07-06T05:18:35;1.35;;;0.10;;
28988;SDS011;16089;59.952;10.818;2022-07-06T05:21:03;0.30;;;0.08;;
28988;SDS011;16089;59.952;10.818;2022-07-06T05:23:29;1.75;;;0.10;;
28988;SDS011;16089;59.952;10.818;2022-07-06T05:25:56;1.33;;;0.10;;
28988;SDS011;16089;59.952;10.818;2022-07-06T05:28:22;1.35;;;0.10;;
28988;SDS011;16089;59.952;10.818;2022-07-06T05:30:48;0.68;;;0.10;;
28988;SDS011;16089;59.952;10.818;2022-07-06T05:33:15;0.70;;;0.20;;
28988;SDS011;16089;59.952;10.818;2022-07-06T05:35:41;0.50;;;0.10;;
28988;SDS011;16089;59.952;10.818;2022-07-06T05:38:09;1.88;;;0.28;;
28988;SDS011;16089;59.952;10.818;2022-07-06T05:40:35;2.30;;;0.20;;
28988;SDS011;16089;59.952;10.818;2022-07-06T05:43:02;0.45;;;0.13;;
28988;SDS011;16089;59.952;10.818;2022-07-06T05:45:28;3.47;;;0.15;;
28988;SDS011;16089;59.952;10.818;2022-07-06T05:47:56;1.33;;;0.20;;
28988;SDS011;16089;59.952;10.818;2022-07-06T05:50:40;4.25;;;0.20;;
28988;SDS011;16089;59.952;10.818;2022-07-06T05:53:06;4.13;;;0.20;;
28988;SDS011;16089;59.952;10.818;2022-07-06T05:55:34;1.40;;;0.20;;
28988;SDS011;16089;59.952;10.818;2022-07-06T05:58:00;2.20;;;0.20;;
28988;SDS011;16089;59.952;10.818;2022-07-06T06:00:27;1.23;;;0.10;;
28988;SDS011;16089;59.952;10.818;2022-07-06T06:02:53;1.17;;;0.10;;
28988;SDS011;16089;59.952;10.818;2022-07-06T06:05:20;2.40;;;0.30;;
28988;SDS011;16089;59.952;10.818;2022-07-06T06:07:47;1.75;;;0.32;;
28988;SDS011;16089;59.952;10.818;2022-07-06T06:10:16;7.13;;;0.32;;
28988;SDS011;16089;59.952;10.818;2022-07-06T06:12:44;6.95;;;0.40;;
28988;SDS011;16089;59.952;10.818;2022-07-06T06:15:11;2.53;;;0.30;;
28988;SDS011;16089;59.952;10.818;2022-07-06T06:17:38;3.67;;;0.30;;
28988;SDS011;16089;59.952;10.818;2022-07-06T06:20:05;1.63;;;0.20;;
28988;SDS011;16089;59.952;10.818;2022-07-06T06:22:42;1.33;;;0.20;;
28988;SDS011;16089;59.952;10.818;2022-07-06T06:25:09;6.85;;;0.28;;
28988;SDS011;16089;59.952;10.818;2022-07-06T06:27:36;1.00;;;0.10;;
28988;SDS011;16089;59.952;10.818;2022-07-06T06:30:04;1.33;;;0.20;;
28988;SDS011;16089;59.952;10.818;2022-07-06T06:32:31;2.22;;;0.30;;
28988;SDS011;16089;59.952;10.818;2022-07-06T06:34:57;1.25;;;0.20;;
28988;SDS011;16089;59.952;10.818;2022-07-06T06:37:24;1.65;;;0.20;;
28988;SDS011;16089;59.952;10.818;2022-07-06T06:39:50;1.15;;;0.20;;
28988;SDS011;16089;59.952;10.818;2022-07-06T06:42:16;0.70;;;0.17;;
28988;SDS011;16089;59.952;10.818;2022-07-06T06:44:43;4.13;;;0.20;;
28988;SDS011;16089;59.952;10.818;2022-07-06T06:47:10;2.85;;;0.30;;
28988;SDS011;16089;59.952;10.818;2022-07-06T06:49:37;2.55;;;0.40;;
28988;SDS011;16089;59.952;10.818;2022-07-06T06:52:03;2.58;;;0.32;;
28988;SDS011;16089;59.952;10.818;2022-07-06T06:54:30;2.05;;;0.25;;
28988;SDS011;16089;59.952;10.818;2022-07-06T06:56:56;2.03;;;0.90;;
28988;SDS011;16089;59.952;10.818;2022-07-06T06:59:22;0.90;;;0.22;;
28988;SDS011;16089;59.952;10.818;2022-07-06T07:01:49;1.48;;;0.22;;
28988;SDS011;16089;59.952;10.818;2022-07-06T07:04:17;1.02;;;0.20;;
28988;SDS011;16089;59.952;10.818;2022-07-06T07:06:43;3.20;;;0.70;;
28988;SDS011;16089;59.952;10.818;2022-07-06T07:09:09;2.47;;;0.30;;
28988;SDS011;16089;59.952;10.818;2022-07-06T07:11:36;3.17;;;0.30;;
28988;SDS011;16089;59.952;10.818;2022-07-06T07:14:02;1.10;;;0.30;;
28988;SDS011;16089;59.952;10.818;2022-07-06T07:16:29;0.98;;;0.22;;
28988;SDS011;16089;59.952;10.818;2022-07-06T07:18:55;2.40;;;0.38;;
28988;SDS011;16089;59.952;10.818;2022-07-06T07:21:23;2.42;;;0.30;;
28988;SDS011;16089;59.952;10.818;2022-07-06T07:23:49;2.20;;;0.25;;
28988;SDS011;16089;59.952;10.818;2022-07-06T07:26:16;1.63;;;0.30;;
28988;SDS011;16089;59.952;10.818;2022-07-06T07:28:42;1.80;;;0.30;;
28988;SDS011;16089;59.952;10.818;2022-07-06T07:31:09;1.33;;;0.20;;
28988;SDS011;16089;59.952;10.818;2022-07-06T07:33:35;1.35;;;0.30;;
28988;SDS011;16089;59.952;10.818;2022-07-06T07:36:01;2.83;;;0.43;;
28988;SDS011;16089;59.952;10.818;2022-07-06T07:38:29;2.30;;;0.22;;
28988;SDS011;16089;59.952;10.818;2022-07-06T07:40:55;3.65;;;0.38;;
28988;SDS011;16089;59.952;10.818;2022-07-06T07:43:22;2.60;;;0.43;;
28988;SDS011;16089;59.952;10.818;2022-07-06T07:45:48;3.03;;;0.45;;
28988;SDS011;16089;59.952;10.818;2022-07-06T07:48:15;2.15;;;0.30;;
28988;SDS011;16089;59.952;10.818;2022-07-06T07:50:41;3.10;;;0.30;;
28988;SDS011;16089;59.952;10.818;2022-07-06T07:53:08;3.15;;;0.40;;
28988;SDS011;16089;59.952;10.818;2022-07-06T07:55:35;1.05;;;0.20;;
28988;SDS011;16089;59.952;10.818;2022-07-06T07:58:02;3.80;;;0.40;;
28988;SDS011;16089;59.952;10.818;2022-07-06T08:00:29;3.72;;;0.40;;
28988;SDS011;16089;59.952;10.818;2022-07-06T08:02:55;2.42;;;0.40;;
28988;SDS011;16089;59.952;10.818;2022-07-06T08:05:22;1.27;;;0.20;;
28988;SDS011;16089;59.952;10.818;2022-07-06T08:07:48;1.58;;;0.40;;
28988;SDS011;16089;59.952;10.818;2022-07-06T08:10:14;3.80;;;0.30;;
28988;SDS011;16089;59.952;10.818;2022-07-06T08:12:42;2.35;;;0.45;;
28988;SDS011;16089;59.952;10.818;2022-07-06T08:15:09;2.30;;;0.17;;
28988;SDS011;16089;59.952;10.818;2022-07-06T08:17:35;2.95;;;0.50;;
28988;SDS011;16089;59.952;10.818;2022-07-06T08:20:02;1.73;;;0.30;;
28988;SDS011;16089;59.952;10.818;2022-07-06T08:22:28;3.00;;;0.40;;
28988;SDS011;16089;59.952;10.818;2022-07-06T08:24:55;3.28;;;0.50;;
28988;SDS011;16089;59.952;10.818;2022-07-06T08:27:21;2.63;;;0.50;;
28988;SDS011;16089;59.952;10.818;2022-07-06T08:29:49;3.83;;;0.60;;
28988;SDS011;16089;59.952;10.818;2022-07-06T08:32:15;1.13;;;0.60;;
28988;SDS011;16089;59.952;10.818;2022-07-06T08:34:42;2.10;;;0.40;;
28988;SDS011;16089;59.952;10.818;2022-07-06T08:37:09;1.85;;;0.47;;
28988;SDS011;16089;59.952;10.818;2022-07-06T08:39:35;1.70;;;0.40;;
28988;SDS011;16089;59.952;10.818;2022-07-06T08:42:02;2.08;;;0.35;;
28988;SDS011;16089;59.952;10.818;2022-07-06T08:44:29;1.75;;;0.38;;
28988;SDS011;16089;59.952;10.818;2022-07-06T08:46:57;1.95;;;0.40;;
28988;SDS011;16089;59.952;10.818;2022-07-06T08:49:23;2.67;;;0.30;;
28988;SDS011;16089;59.952;10.818;2022-07-06T08:51:51;3.03;;;0.40;;
28988;SDS011;16089;59.952;10.818;2022-07-06T08:54:18;2.72;;;0.60;;
28988;SDS011;16089;59.952;10.818;2022-07-06T08:56:44;1.70;;;0.30;;
28988;SDS011;16089;59.952;10.818;2022-07-06T08:59:11;2.58;;;0.50;;
28988;SDS011;16089;59.952;10.818;2022-07-06T09:01:38;2.00;;;0.40;;
28988;SDS011;16089;59.952;10.818;2022-07-06T09:04:06;0.85;;;0.30;;
28988;SDS011;16089;59.952;10.818;2022-07-06T09:06:33;5.15;;;0.40;;
28988;SDS011;16089;59.952;10.818;2022-07-06T09:08:59;2.42;;;0.40;;
28988;SDS011;16089;59.952;10.818;2022-07-06T09:11:29;1.63;;;0.30;;
28988;SDS011;16089;59.952;10.818;2022-07-06T09:13:55;2.70;;;0.50;;
28988;SDS011;16089;59.952;10.818;2022-07-06T09:16:25;2.50;;;0.38;;
28988;SDS011;16089;59.952;10.818;2022-07-06T09:18:52;1.73;;;0.40;;
28988;SDS011;16089;59.952;10.818;2022-07-06T09:21:24;1.00;;;0.25;;
28988;SDS011;16089;59.952;10.818;2022-07-06T09:23:52;1.30;;;0.30;;
28988;SDS011;16089;59.952;10.818;2022-07-06T09:26:19;2.85;;;0.60;;
28988;SDS011;16089;59.952;10.818;2022-07-06T09:28:45;2.50;;;0.45;;
28988;SDS011;16089;59.952;10.818;2022-07-06T09:31:12;2.78;;;0.40;;
28988;SDS011;16089;59.952;10.818;2022-07-06T09:33:39;4.68;;;0.50;;
28988;SDS011;16089;59.952;10.818;2022-07-06T09:36:19;1.55;;;0.50;;
28988;SDS011;16089;59.952;10.818;2022-07-06T09:39:14;2.30;;;0.40;;
28988;SDS011;16089;59.952;10.818;2022-07-06T09:41:41;2.75;;;0.60;;
28988;SDS011;16089;59.952;10.818;2022-07-06T09:44:08;3.38;;;0.47;;
28988;SDS011;16089;59.952;10.818;2022-07-06T09:46:37;2.63;;;0.50;;
28988;SDS011;16089;59.952;10.818;2022-07-06T09:49:03;4.32;;;0.40;;
28988;SDS011;16089;59.952;10.818;2022-07-06T09:51:34;3.33;;;0.43;;
28988;SDS011;16089;59.952;10.818;2022-07-06T09:54:03;4.55;;;0.47;;
28988;SDS011;16089;59.952;10.818;2022-07-06T09:56:36;3.70;;;0.57;;
28988;SDS011;16089;59.952;10.818;2022-07-06T09:59:05;3.22;;;0.60;;
28988;SDS011;16089;59.952;10.818;2022-07-06T10:01:31;4.72;;;0.43;;
28988;SDS011;16089;59.952;10.818;2022-07-06T10:03:58;2.80;;;0.40;;
28988;SDS011;16089;59.952;10.818;2022-07-06T10:06:24;3.67;;;0.50;;
28988;SDS011;16089;59.952;10.818;2022-07-06T10:08:51;3.90;;;0.80;;
28988;SDS011;16089;59.952;10.818;2022-07-06T10:11:18;2.30;;;0.40;;
28988;SDS011;16089;59.952;10.818;2022-07-06T10:13:45;3.22;;;0.50;;
28988;SDS011;16089;59.952;10.818;2022-07-06T10:16:14;2.55;;;0.60;;
28988;SDS011;16089;59.952;10.818;2022-07-06T10:18:40;3.85;;;0.70;;
28988;SDS011;16089;59.952;10.818;2022-07-06T10:21:07;2.65;;;0.40;;
28988;SDS011;16089;59.952;10.818;2022-07-06T10:23:34;4.00;;;0.50;;
28988;SDS011;16089;59.952;10.818;2022-07-06T10:26:01;2.63;;;0.50;;
28988;SDS011;16089;59.952;10.818;2022-07-06T10:28:27;3.28;;;0.60;;
28988;SDS011;16089;59.952;10.818;2022-07-06T10:30:56;3.35;;;0.57;;
28988;SDS011;16089;59.952;10.818;2022-07-06T10:33:23;2.13;;;0.68;;
28988;SDS011;16089;59.952;10.818;2022-07-06T10:35:49;3.45;;;0.70;;
28988;SDS011;16089;59.952;10.818;2022-07-06T10:38:16;3.47;;;0.60;;
28988;SDS011;16089;59.952;10.818;2022-07-06T10:40:42;3.95;;;0.70;;
28988;SDS011;16089;59.952;10.818;2022-07-06T10:43:33;5.78;;;0.95;;
28988;SDS011;16089;59.952;10.818;2022-07-06T10:46:06;2.80;;;0.75;;
28988;SDS011;16089;59.952;10.818;2022-07-06T10:48:36;2.05;;;0.60;;
28988;SDS011;16089;59.952;10.818;2022-07-06T10:51:02;2.22;;;0.50;;
28988;SDS011;16089;59.952;10.818;2022-07-06T10:53:30;4.22;;;0.50;;
28988;SDS011;16089;59.952;10.818;2022-07-06T10:55:58;4.43;;;0.68;;
28988;SDS011;16089;59.952;10.818;2022-07-06T10:58:34;3.63;;;1.20;;
28988;SDS011;16089;59.952;10.818;2022-07-06T11:01:01;2.75;;;0.80;;
28988;SDS011;16089;59.952;10.818;2022-07-06T11:03:36;6.97;;;0.80;;
28988;SDS011;16089;59.952;10.818;2022-07-06T11:06:04;3.53;;;0.70;;
28988;SDS011;16089;59.952;10.818;2022-07-06T11:08:47;4.97;;;0.70;;
28988;SDS011;16089;59.952;10.818;2022-07-06T11:11:14;2.40;;;0.50;;
28988;SDS011;16089;59.952;10.818;2022-07-06T11:13:51;3.17;;;0.60;;
28988;SDS011;16089;59.952;10.818;2022-07-06T11:16:19;2.47;;;0.60;;
28988;SDS011;16089;59.952;10.818;2022-07-06T11:18:47;3.30;;;0.50;;
28988;SDS011;16089;59.952;10.818;2022-07-06T11:21:15;2.38;;;0.60;;
28988;SDS011;16089;59.952;10.818;2022-07-06T11:23:41;3.92;;;0.60;;
28988;SDS011;16089;59.952;10.818;2022-07-06T11:26:08;3.97;;;0.60;;
28988;SDS011;16089;59.952;10.818;2022-07-06T11:28:34;2.95;;;0.70;;
28988;SDS011;16089;59.952;10.818;2022-07-06T11:31:01;4.65;;;0.60;;
28988;SDS011;16089;59.952;10.818;2022-07-06T11:33:28;6.38;;;0.73;;
28988;SDS011;16089;59.952;10.818;2022-07-06T11:38:37;5.22;;;0.50;;
28988;SDS011;16089;59.952;10.818;2022-07-06T11:41:03;3.42;;;0.57;;
28988;SDS011;16089;59.952;10.818;2022-07-06T11:43:30;3.78;;;0.60;;
28988;SDS011;16089;59.952;10.818;2022-07-06T11:45:56;2.15;;;0.50;;
28988;SDS011;16089;59.952;10.818;2022-07-06T11:48:23;4.38;;;0.70;;
28988;SDS011;16089;59.952;10.818;2022-07-06T11:50:56;3.58;;;0.63;;
28988;SDS011;16089;59.952;10.818;2022-07-06T11:53:23;3.00;;;0.50;;
28988;SDS011;16089;59.952;10.818;2022-07-06T11:55:51;6.40;;;0.70;;
28988;SDS011;16089;59.952;10.818;2022-07-06T11:58:17;2.60;;;0.60;;
28988;SDS011;16089;59.952;10.818;2022-07-06T12:03:28;4.20;;;0.70;;
28988;SDS011;16089;59.952;10.818;2022-07-06T12:05:54;3.55;;;0.65;;
28988;SDS011;16089;59.952;10.818;2022-07-06T12:08:21;2.80;;;0.40;;
28988;SDS011;16089;59.952;10.818;2022-07-06T12:10:47;3.20;;;0.45;;
28988;SDS011;16089;59.952;10.818;2022-07-06T12:13:15;3.30;;;0.75;;
28988;SDS011;16089;59.952;10.818;2022-07-06T12:15:41;3.75;;;0.63;;
28988;SDS011;16089;59.952;10.818;2022-07-06T12:18:07;3.58;;;0.60;;
28988;SDS011;16089;59.952;10.818;2022-07-06T12:20:34;3.95;;;0.65;;
28988;SDS011;16089;59.952;10.818;2022-07-06T12:23:01;2.42;;;0.50;;
28988;SDS011;16089;59.952;10.818;2022-07-06T12:25:30;5.47;;;0.60;;
28988;SDS011;16089;59.952;10.818;2022-07-06T12:27:57;3.10;;;0.55;;
28988;SDS011;16089;59.952;10.818;2022-07-06T12:30:24;3.95;;;0.35;;
28988;SDS011;16089;59.952;10.818;2022-07-06T12:35:32;4.15;;;0.50;;
28988;SDS011;16089;59.952;10.818;2022-07-06T12:37:58;2.97;;;0.73;;
28988;SDS011;16089;59.952;10.818;2022-07-06T12:40:25;8.13;;;0.90;;
28988;SDS011;16089;59.952;10.818;2022-07-06T12:42:52;3.70;;;0.50;;
28988;SDS011;16089;59.952;10.818;2022-07-06T12:45:19;3.28;;;0.60;;
28988;SDS011;16089;59.952;10.818;2022-07-06T12:47:57;2.30;;;0.50;;
28988;SDS011;16089;59.952;10.818;2022-07-06T12:50:30;3.10;;;0.40;;
28988;SDS011;16089;59.952;10.818;2022-07-06T12:52:57;2.03;;;0.30;;
28988;SDS011;16089;59.952;10.818;2022-07-06T12:55:25;3.95;;;0.60;;
28988;SDS011;16089;59.952;10.818;2022-07-06T12:57:51;5.55;;;0.60;;
28988;SDS011;16089;59.952;10.818;2022-07-06T13:00:18;2.53;;;0.50;;
28988;SDS011;16089;59.952;10.818;2022-07-06T13:02:45;4.40;;;0.47;;
28988;SDS011;16089;59.952;10.818;2022-07-06T13:05:14;2.78;;;0.32;;
28988;SDS011;16089;59.952;10.818;2022-07-06T13:07:43;3.90;;;0.70;;
28988;SDS011;16089;59.952;10.818;2022-07-06T13:10:10;2.45;;;0.50;;
28988;SDS011;16089;59.952;10.818;2022-07-06T13:12:37;2.17;;;0.52;;
28988;SDS011;16089;59.952;10.818;2022-07-06T13:15:04;5.72;;;0.63;;
28988;SDS011;16089;59.952;10.818;2022-07-06T13:17:31;3.42;;;0.52;;
28988;SDS011;16089;59.952;10.818;2022-07-06T13:19:57;5.88;;;0.60;;
28988;SDS011;16089;59.952;10.818;2022-07-06T13:22:25;5.18;;;0.60;;
28988;SDS011;16089;59.952;10.818;2022-07-06T13:24:51;3.63;;;0.77;;
28988;SDS011;16089;59.952;10.818;2022-07-06T13:27:18;1.80;;;0.45;;
28988;SDS011;16089;59.952;10.818;2022-07-06T13:29:44;3.58;;;0.75;;
28988;SDS011;16089;59.952;10.818;2022-07-06T13:32:11;4.38;;;0.47;;
28988;SDS011;16089;59.952;10.818;2022-07-06T13:34:37;4.63;;;0.68;;
28988;SDS011;16089;59.952;10.818;2022-07-06T13:37:04;3.08;;;0.60;;
28988;SDS011;16089;59.952;10.818;2022-07-06T13:39:32;2.80;;;0.50;;
28988;SDS011;16089;59.952;10.818;2022-07-06T13:41:58;2.70;;;0.70;;
28988;SDS011;16089;59.952;10.818;2022-07-06T13:44:25;4.15;;;0.57;;
28988;SDS011;16089;59.952;10.818;2022-07-06T13:46:51;1.90;;;0.40;;
28988;SDS011;16089;59.952;10.818;2022-07-06T13:49:18;3.70;;;0.70;;
28988;SDS011;16089;59.952;10.818;2022-07-06T13:51:44;2.75;;;0.70;;
28988;SDS011;16089;59.952;10.818;2022-07-06T13:54:10;1.63;;;0.50;;
28988;SDS011;16089;59.952;10.818;2022-07-06T13:56:38;2.88;;;0.60;;
28988;SDS011;16089;59.952;10.818;2022-07-06T13:59:05;2.17;;;0.52;;
28988;SDS011;16089;59.952;10.818;2022-07-06T14:01:32;3.25;;;0.60;;
28988;SDS011;16089;59.952;10.818;2022-07-06T14:03:58;3.90;;;0.45;;
28988;SDS011;16089;59.952;10.818;2022-07-06T14:06:24;4.25;;;0.65;;
28988;SDS011;16089;59.952;10.818;2022-07-06T14:08:51;2.72;;;0.52;;
28988;SDS011;16089;59.952;10.818;2022-07-06T14:11:17;3.13;;;0.50;;
28988;SDS011;16089;59.952;10.818;2022-07-06T14:13:45;2.45;;;0.57;;
28988;SDS011;16089;59.952;10.818;2022-07-06T14:16:11;4.25;;;0.57;;
28988;SDS011;16089;59.952;10.818;2022-07-06T14:18:38;3.25;;;0.50;;
28988;SDS011;16089;59.952;10.818;2022-07-06T14:21:04;1.55;;;0.43;;
28988;SDS011;16089;59.952;10.818;2022-07-06T14:23:31;1.95;;;0.60;;
28988;SDS011;16089;59.952;10.818;2022-07-06T14:25:57;1.42;;;0.40;;
28988;SDS011;16089;59.952;10.818;2022-07-06T14:28:24;1.95;;;0.45;;
28988;SDS011;16089;59.952;10.818;2022-07-06T14:30:52;3.95;;;0.57;;
28988;SDS011;16089;59.952;10.818;2022-07-06T14:33:18;3.83;;;0.90;;
28988;SDS011;16089;59.952;10.818;2022-07-06T14:35:45;4.55;;;0.65;;
28988;SDS011;16089;59.952;10.818;2022-07-06T14:38:12;2.53;;;0.60;;
28988;SDS011;16089;59.952;10.818;2022-07-06T14:40:39;1.85;;;0.50;;